createdAt,value
2022-09-15T00:01:54.521Z,20.89
2022-09-15T00:04:22.682Z,20.86
2022-09-15T00:06:50.700Z,20.87
2022-09-15T00:09:18.736Z,20.85
2022-09-15T00:11:46.794Z,20.83
2022-09-15T00:14:14.920Z,20.79
2022-09-15T00:16:43.152Z,20.78
2022-09-15T00:19:12.592Z,20.75
2022-09-15T00:21:42.476Z,20.72
2022-09-15T00:24:11.299Z,20.71
2022-09-15T00:26:39.544Z,20.71
2022-09-15T00:29:07.795Z,20.68
2022-09-15T00:31:35.939Z,20.68
2022-09-15T00:34:04.131Z,20.66
2022-09-15T00:36:33.916Z,20.61
2022-09-15T00:39:02.199Z,20.52
2022-09-15T00:41:30.701Z,20.52
2022-09-15T00:44:01.224Z,20.45
2022-09-15T00:46:30.934Z,20.45
2022-09-15T00:49:03.001Z,20.41
2022-09-15T00:51:39.930Z,20.37
2022-09-15T00:54:12.711Z,20.36
2022-09-15T00:56:41.970Z,20.37
2022-09-15T00:59:15.824Z,20.36
2022-09-15T01:01:44.894Z,20.36
2022-09-15T01:04:14.244Z,20.35
2022-09-15T01:06:48.902Z,20.34
2022-09-15T01:09:20.227Z,20.31
2022-09-15T01:11:48.335Z,20.25
2022-09-15T01:14:16.528Z,20.22
2022-09-15T01:16:54.567Z,20.20
2022-09-15T01:20:16.453Z,20.15
2022-09-15T01:23:03.040Z,20.12
2022-09-15T01:25:49.502Z,20.08
2022-09-15T01:28:39.981Z,20.08
2022-09-15T01:31:17.168Z,20.05
2022-09-15T01:33:52.152Z,20.05
2022-09-15T01:36:24.412Z,20.04
2022-09-15T01:39:01.024Z,20.04
2022-09-15T01:41:34.207Z,20.02
2022-09-15T01:44:06.745Z,20.01
2022-09-15T01:46:38.581Z,20.00
2022-09-15T01:49:09.872Z,20.02
2022-09-15T01:51:40.276Z,20.02
2022-09-15T01:54:09.354Z,20.04
2022-09-15T01:56:38.250Z,20.05
2022-09-15T01:59:06.464Z,20.07
2022-09-15T02:01:44.737Z,20.07
2022-09-15T02:04:19.351Z,20.08
2022-09-15T02:06:54.892Z,20.06
2022-09-15T02:09:25.586Z,20.05
2022-09-15T02:12:03.105Z,20.04
2022-09-15T02:14:48.418Z,20.04
2022-09-15T02:17:22.055Z,20.03
2022-09-15T02:19:52.223Z,20.02
2022-09-15T02:22:25.024Z,20.02
2022-09-15T02:24:59.018Z,19.98
2022-09-15T02:27:31.132Z,19.94
2022-09-15T02:30:06.048Z,19.92
2022-09-15T02:32:38.113Z,19.89
2022-09-15T02:35:09.985Z,19.90
2022-09-15T02:37:39.080Z,19.87
2022-09-15T02:40:08.351Z,19.84
2022-09-15T02:42:37.035Z,19.83
2022-09-15T02:45:06.148Z,19.81
2022-09-15T02:47:35.561Z,19.81
2022-09-15T02:50:03.587Z,19.82
2022-09-15T02:52:31.640Z,19.85
2022-09-15T02:55:00.826Z,19.84
2022-09-15T02:57:28.846Z,19.87
2022-09-15T03:00:16.354Z,19.87
2022-09-15T03:02:47.932Z,19.87
2022-09-15T03:05:17.848Z,19.88
2022-09-15T03:07:45.889Z,19.90
2022-09-15T03:10:14.900Z,19.88
2022-09-15T03:12:44.883Z,19.90
2022-09-15T03:15:14.519Z,19.88
2022-09-15T03:17:44.202Z,19.84
2022-09-15T03:20:16.350Z,19.83
2022-09-15T03:22:44.428Z,19.81
2022-09-15T03:25:13.465Z,19.77
2022-09-15T03:27:42.431Z,19.76
2022-09-15T03:30:11.990Z,19.71
2022-09-15T03:32:40.135Z,19.65
2022-09-15T03:35:09.195Z,19.63
2022-09-15T03:37:38.615Z,19.57
2022-09-15T03:40:08.126Z,19.57
2022-09-15T03:42:36.241Z,19.59
2022-09-15T03:45:04.478Z,19.61
2022-09-15T03:47:33.338Z,19.63
2022-09-15T03:50:01.318Z,19.64
2022-09-15T03:52:31.988Z,19.65
2022-09-15T03:55:01.463Z,19.65
2022-09-15T03:57:29.551Z,19.65
2022-09-15T03:59:57.616Z,19.65
2022-09-15T04:02:25.794Z,19.66
2022-09-15T04:04:53.860Z,19.65
2022-09-15T04:07:21.890Z,19.65
2022-09-15T04:09:49.955Z,19.66
2022-09-15T04:12:19.409Z,19.65
2022-09-15T04:14:47.730Z,19.66
2022-09-15T04:17:16.221Z,19.64
2022-09-15T04:19:44.196Z,19.61
2022-09-15T04:22:16.968Z,19.58
2022-09-15T04:24:46.134Z,19.56
2022-09-15T04:27:14.185Z,19.57
2022-09-15T04:29:43.651Z,19.56
2022-09-15T04:32:11.718Z,19.57
2022-09-15T04:34:41.536Z,19.55
2022-09-15T04:37:09.665Z,19.55
2022-09-15T04:39:37.679Z,19.55
2022-09-15T04:42:07.834Z,19.56
2022-09-15T04:44:35.925Z,19.59
2022-09-15T04:47:05.844Z,19.66
2022-09-15T04:49:34.231Z,19.71
2022-09-15T04:52:06.623Z,19.76
2022-09-15T04:54:37.070Z,19.79
2022-09-15T04:57:05.610Z,19.83
2022-09-15T04:59:33.798Z,19.85
2022-09-15T05:02:01.914Z,19.87
2022-09-15T05:04:31.520Z,19.88
2022-09-15T05:06:59.589Z,19.92
2022-09-15T05:09:29.599Z,19.94
2022-09-15T05:11:57.831Z,19.96
2022-09-15T05:14:25.850Z,19.95
2022-09-15T05:16:54.062Z,19.99
2022-09-15T05:19:22.355Z,20.04
2022-09-15T05:21:51.833Z,20.08
2022-09-15T05:24:20.043Z,20.08
2022-09-15T05:26:48.068Z,20.07
2022-09-15T05:29:16.387Z,20.05
2022-09-15T05:31:44.487Z,20.03
2022-09-15T05:34:12.647Z,20.02
2022-09-15T05:36:40.670Z,20.02
2022-09-15T05:39:10.207Z,20.02
2022-09-15T05:41:38.228Z,20.01
2022-09-15T05:44:06.496Z,20.05
2022-09-15T05:46:34.704Z,20.06
2022-09-15T05:49:02.852Z,20.09
2022-09-15T05:51:31.104Z,20.12
2022-09-15T05:53:59.157Z,20.12
2022-09-15T05:56:28.601Z,20.13
2022-09-15T05:58:57.102Z,20.17
2022-09-15T06:01:26.843Z,20.17
2022-09-15T06:03:56.119Z,20.24
2022-09-15T06:06:25.244Z,20.25
2022-09-15T06:08:57.967Z,20.29
2022-09-15T06:11:30.502Z,20.31
2022-09-15T06:14:00.440Z,20.36
2022-09-15T06:16:29.114Z,20.34
2022-09-15T06:18:57.234Z,20.41
2022-09-15T06:21:27.095Z,20.45
2022-09-15T06:23:56.496Z,20.46
2022-09-15T06:26:24.982Z,20.46
2022-09-15T06:28:56.941Z,20.50
2022-09-15T06:31:27.067Z,20.54
2022-09-15T06:33:57.750Z,20.57
2022-09-15T06:36:27.818Z,20.64
2022-09-15T06:38:56.959Z,20.66
2022-09-15T06:41:25.074Z,20.74
2022-09-15T06:43:54.482Z,20.72
2022-09-15T06:46:25.118Z,20.71
2022-09-15T06:48:54.012Z,20.73
2022-09-15T06:51:24.125Z,20.75
2022-09-15T06:53:52.455Z,20.81
2022-09-15T06:56:24.771Z,20.87
2022-09-15T06:58:54.454Z,20.90
2022-09-15T07:01:25.271Z,20.87
2022-09-15T07:03:53.621Z,20.87
2022-09-15T07:06:22.038Z,20.95
2022-09-15T07:08:51.011Z,20.96
2022-09-15T07:11:19.378Z,21.02
2022-09-15T07:13:48.342Z,21.08
2022-09-15T07:16:19.319Z,21.11
2022-09-15T07:18:48.335Z,21.09
2022-09-15T07:21:17.916Z,21.09
2022-09-15T07:23:46.002Z,21.16
2022-09-15T07:26:17.218Z,21.19
2022-09-15T07:28:46.858Z,21.33
2022-09-15T07:31:18.193Z,21.47
2022-09-15T07:33:46.470Z,21.62
2022-09-15T07:36:14.602Z,21.78
2022-09-15T07:38:44.653Z,21.89
2022-09-15T07:41:15.115Z,21.81
2022-09-15T07:43:47.304Z,21.81
2022-09-15T07:46:17.589Z,21.79
2022-09-15T07:48:46.743Z,21.81
2022-09-15T07:51:15.140Z,21.89
2022-09-15T07:53:43.220Z,21.94
2022-09-15T07:56:11.267Z,22.00
2022-09-15T07:58:39.397Z,21.99
2022-09-15T08:01:09.196Z,22.04
2022-09-15T08:03:40.539Z,22.06
2022-09-15T08:06:08.866Z,22.08
2022-09-15T08:08:38.445Z,22.20
2022-09-15T08:11:13.996Z,22.29
2022-09-15T08:13:44.362Z,22.48
2022-09-15T08:16:14.822Z,22.50
2022-09-15T08:18:45.620Z,22.56
2022-09-15T08:21:17.674Z,22.75
2022-09-15T08:23:45.722Z,22.79
2022-09-15T08:26:14.703Z,22.82
2022-09-15T08:28:43.378Z,22.92
2022-09-15T08:31:14.062Z,23.00
2022-09-15T08:33:45.836Z,23.08
2022-09-15T08:36:14.459Z,23.20
2022-09-15T08:38:44.123Z,23.31
2022-09-15T08:41:15.617Z,23.41
2022-09-15T08:43:49.086Z,23.52
2022-09-15T08:46:20.570Z,23.62
2022-09-15T08:48:58.625Z,23.66
2022-09-15T08:51:36.653Z,23.81
2022-09-15T08:54:08.497Z,23.77
2022-09-15T08:56:37.761Z,23.90
2022-09-15T08:59:05.887Z,23.93
2022-09-15T09:01:50.474Z,24.09
2022-09-15T09:04:39.035Z,24.16
2022-09-15T09:07:21.577Z,24.26
2022-09-15T09:09:57.473Z,24.39
2022-09-15T09:12:42.692Z,24.49
2022-09-15T09:15:26.468Z,24.56
2022-09-15T09:18:11.327Z,24.65
2022-09-15T09:20:48.831Z,24.67
2022-09-15T09:23:21.691Z,24.77
2022-09-15T09:25:50.113Z,24.84
2022-09-15T09:28:29.244Z,24.90
2022-09-15T09:31:02.229Z,24.89
2022-09-15T09:33:38.692Z,25.02
2022-09-15T09:36:11.845Z,25.17
2022-09-15T09:38:43.315Z,25.27
2022-09-15T09:41:15.763Z,25.41
2022-09-15T09:43:45.308Z,25.57
2022-09-15T09:46:16.495Z,25.74
2022-09-15T09:48:49.254Z,25.91
2022-09-15T09:51:36.994Z,25.90
2022-09-15T09:54:07.437Z,25.91
2022-09-15T09:56:35.524Z,26.08
2022-09-15T09:59:03.998Z,26.30
2022-09-15T10:01:32.295Z,26.42
2022-09-15T10:04:17.786Z,26.42
2022-09-15T10:06:47.766Z,26.33
2022-09-15T10:09:18.140Z,26.44
2022-09-15T10:11:48.388Z,26.39
2022-09-15T10:14:27.282Z,26.34
2022-09-15T10:17:04.277Z,26.35
2022-09-15T10:19:34.677Z,26.26
2022-09-15T10:22:05.288Z,26.22
2022-09-15T10:24:39.606Z,26.15
2022-09-15T10:27:09.877Z,26.17
2022-09-15T10:29:39.974Z,26.40
2022-09-15T10:32:20.705Z,26.59
2022-09-15T10:35:00.837Z,26.94
2022-09-15T10:37:36.061Z,27.32
2022-09-15T10:40:24.167Z,27.54
2022-09-15T10:42:54.413Z,27.76
2022-09-15T10:45:34.815Z,27.79
2022-09-15T10:48:27.746Z,27.66
2022-09-15T10:51:00.200Z,27.53
2022-09-15T10:53:53.583Z,27.36
2022-09-15T10:56:29.578Z,27.25
2022-09-15T10:59:33.215Z,27.14
2022-09-15T11:02:21.559Z,26.95
2022-09-15T11:05:22.730Z,26.96
2022-09-15T11:08:04.426Z,26.82
2022-09-15T11:10:39.088Z,26.85
2022-09-15T11:13:15.111Z,26.97
2022-09-15T11:15:56.654Z,26.83
2022-09-15T11:18:50.935Z,26.60
2022-09-15T11:21:25.665Z,26.35
2022-09-15T11:24:04.819Z,26.14
2022-09-15T11:26:38.048Z,25.98
2022-09-15T11:29:13.040Z,25.94
2022-09-15T11:31:43.945Z,25.92
2022-09-15T11:34:21.377Z,25.81
2022-09-15T11:36:54.547Z,25.76
2022-09-15T11:39:25.859Z,25.69
2022-09-15T11:42:01.283Z,25.66
2022-09-15T11:44:33.627Z,25.69
2022-09-15T11:47:15.570Z,25.72
2022-09-15T11:49:48.920Z,25.73
2022-09-15T11:52:33.534Z,25.83
2022-09-15T11:55:08.736Z,25.98
2022-09-15T11:57:45.687Z,26.10
2022-09-15T12:00:16.113Z,26.20
2022-09-15T12:02:52.145Z,25.88
2022-09-15T12:05:25.035Z,25.85
2022-09-15T12:07:59.537Z,25.72
2022-09-15T12:10:32.412Z,25.70
2022-09-15T12:13:02.531Z,25.55
2022-09-15T12:15:30.998Z,25.42
2022-09-15T12:18:34.421Z,25.32
2022-09-15T12:21:05.528Z,25.20
2022-09-15T12:23:39.174Z,25.20
2022-09-15T12:26:14.731Z,25.21
2022-09-15T12:28:54.327Z,25.24
2022-09-15T12:31:37.647Z,25.29
2022-09-15T12:34:27.973Z,25.34
2022-09-15T12:37:07.801Z,25.38
2022-09-15T12:39:41.888Z,25.39
2022-09-15T12:42:22.265Z,25.51
2022-09-15T12:44:57.747Z,25.61
2022-09-15T12:47:31.863Z,25.73
2022-09-15T12:50:06.134Z,25.68
2022-09-15T12:52:44.435Z,25.57
2022-09-15T12:55:21.268Z,25.44
2022-09-15T12:57:55.237Z,25.28
2022-09-15T13:00:42.312Z,25.07
2022-09-15T13:03:30.490Z,24.61
2022-09-15T13:06:18.331Z,22.12
2022-09-15T13:08:55.007Z,-145.31
2022-09-15T13:11:29.696Z,-145.31
2022-09-15T13:14:11.578Z,-145.31
2022-09-15T13:16:49.516Z,-145.31
2022-09-15T13:19:23.222Z,-145.31
2022-09-15T13:21:59.551Z,-145.31
2022-09-15T13:24:38.227Z,-145.31
2022-09-15T13:27:08.390Z,-145.31
2022-09-15T13:29:44.595Z,-145.31
2022-09-15T13:32:26.938Z,-145.31
2022-09-15T13:35:38.873Z,-145.31
2022-09-15T13:38:37.995Z,-145.31
2022-09-15T13:41:26.138Z,-145.31
2022-09-15T13:44:19.969Z,-145.31
2022-09-15T13:46:59.844Z,-145.31
2022-09-15T13:49:53.660Z,-145.31
2022-09-15T13:52:46.051Z,-145.31
2022-09-15T13:55:21.273Z,-145.31
2022-09-15T14:00:48.939Z,-145.31
2022-09-15T14:03:24.116Z,-145.31
2022-09-15T14:05:54.237Z,-145.31
2022-09-15T14:08:25.134Z,-145.31
2022-09-15T14:10:55.911Z,-145.31
2022-09-15T14:13:27.560Z,-145.31
2022-09-15T14:16:03.490Z,-145.31
2022-09-15T14:18:41.686Z,-145.31
2022-09-15T14:21:18.870Z,-145.31
2022-09-15T14:23:48.821Z,-145.31
2022-09-15T14:26:20.060Z,-145.31
2022-09-15T14:28:54.138Z,-145.31
2022-09-15T14:31:30.160Z,-145.31
2022-09-15T14:33:58.638Z,-145.31
2022-09-15T14:36:30.991Z,-145.31
2022-09-15T14:39:19.216Z,-145.31
2022-09-15T14:41:47.779Z,-145.31
2022-09-15T14:47:13.914Z,-145.31
2022-09-15T14:49:42.017Z,-145.31
2022-09-15T14:52:27.021Z,-145.31
2022-09-15T14:55:01.000Z,-145.31
2022-09-15T14:57:31.423Z,-145.31
2022-09-15T15:00:05.771Z,-145.31
2022-09-15T15:02:48.331Z,-145.31
2022-09-15T15:05:21.178Z,-145.31
2022-09-15T15:07:52.076Z,-145.31
2022-09-15T15:10:23.119Z,-145.31
2022-09-15T15:12:54.900Z,-145.31
2022-09-15T15:15:23.731Z,-145.31
2022-09-15T15:17:54.868Z,-145.31
2022-09-15T15:20:25.653Z,-145.31
2022-09-15T15:23:18.081Z,-145.31
2022-09-15T15:25:47.027Z,-145.31
2022-09-15T15:28:31.820Z,-145.31
2022-09-15T15:31:18.886Z,-145.31
2022-09-15T15:33:48.343Z,-145.31
2022-09-15T15:36:16.675Z,-145.31
2022-09-15T15:38:52.405Z,-145.31
2022-09-15T15:41:22.908Z,-145.31
2022-09-15T15:43:59.405Z,-145.31
2022-09-15T15:46:49.165Z,-145.31
2022-09-15T15:49:18.127Z,-145.31
2022-09-15T15:51:46.685Z,-145.31
2022-09-15T15:54:16.201Z,-145.31
2022-09-15T15:56:44.494Z,-145.31
2022-09-15T15:59:13.924Z,-145.31
2022-09-15T16:01:42.310Z,-145.31
2022-09-15T16:04:12.174Z,-145.31
2022-09-15T16:06:40.647Z,-145.31
2022-09-15T16:09:09.083Z,-145.31
2022-09-15T16:11:38.464Z,-145.31
2022-09-15T16:14:06.510Z,-145.31
2022-09-15T16:16:34.671Z,-145.31
2022-09-15T16:19:02.799Z,-145.31
2022-09-15T16:21:37.032Z,-145.31
2022-09-15T16:24:05.859Z,-145.31
2022-09-15T16:26:35.699Z,-145.31
2022-09-15T16:29:05.234Z,-145.31
2022-09-15T16:31:34.726Z,-145.31
2022-09-15T16:34:02.892Z,-145.31
2022-09-15T16:36:32.089Z,-145.31
2022-09-15T16:39:00.192Z,-145.31
2022-09-15T16:41:28.161Z,-145.31
2022-09-15T16:43:56.633Z,-145.31
2022-09-15T16:46:26.261Z,-145.31
2022-09-15T16:48:54.432Z,-145.31
2022-09-15T16:51:29.965Z,-145.31
2022-09-15T16:53:59.568Z,-145.31
2022-09-15T16:56:28.146Z,-145.31
2022-09-15T16:59:00.130Z,-145.31
2022-09-15T17:01:30.103Z,-145.31
2022-09-15T17:03:58.229Z,-145.31
2022-09-15T17:06:26.259Z,-145.31
2022-09-15T17:08:55.631Z,-145.31
2022-09-15T17:11:25.525Z,-145.31
2022-09-15T17:13:53.812Z,-145.31
2022-09-15T17:16:22.173Z,-145.31
2022-09-15T17:18:51.664Z,-145.31
2022-09-15T17:21:19.805Z,-145.31
2022-09-15T17:23:50.002Z,-145.31
2022-09-15T17:26:21.115Z,-145.31
2022-09-15T17:28:49.556Z,-145.31
2022-09-15T17:31:19.337Z,-145.31
2022-09-15T17:33:48.814Z,-145.31
2022-09-15T17:36:18.954Z,-145.31
2022-09-15T17:38:48.943Z,-145.31
2022-09-15T17:41:19.366Z,-145.31
2022-09-15T17:43:48.148Z,-145.31
2022-09-15T17:46:19.973Z,-145.31
2022-09-15T17:48:52.186Z,-145.31
2022-09-15T17:51:22.159Z,-145.31
2022-09-15T17:53:55.019Z,-145.31
2022-09-15T17:56:24.979Z,-145.31
2022-09-15T17:58:53.456Z,-145.31
2022-09-15T18:01:21.610Z,-145.31
2022-09-15T18:03:58.702Z,-145.31
2022-09-15T18:06:29.857Z,-145.31
2022-09-15T18:08:58.077Z,-145.31
2022-09-15T18:11:28.168Z,-145.31
2022-09-15T18:13:58.078Z,-145.31
2022-09-15T18:16:26.089Z,-145.31
2022-09-15T18:18:54.168Z,-145.31
2022-09-15T18:21:28.673Z,-145.31
2022-09-15T18:23:58.593Z,-145.31
2022-09-15T18:26:27.017Z,-145.31
2022-09-15T18:28:56.436Z,-145.31
2022-09-15T18:31:24.602Z,-145.31
2022-09-15T18:33:52.615Z,-145.31
2022-09-15T18:36:20.709Z,-145.31
2022-09-15T18:38:48.739Z,-145.31
2022-09-15T18:41:18.570Z,-145.31
2022-09-15T18:43:49.154Z,-145.31
2022-09-15T18:46:17.685Z,-145.31
2022-09-15T18:48:45.931Z,-145.31
2022-09-15T18:51:23.758Z,-145.31
2022-09-15T18:53:57.336Z,-145.31
2022-09-15T18:56:26.753Z,-145.31
2022-09-15T18:58:55.165Z,-145.31
2022-09-15T19:01:23.482Z,-145.31
2022-09-15T19:03:51.659Z,-145.31
2022-09-15T19:06:19.675Z,-145.31
2022-09-15T19:08:47.700Z,-145.31
2022-09-15T19:11:16.104Z,-145.31
2022-09-15T19:13:45.575Z,-145.31
2022-09-15T19:16:13.695Z,-145.31
2022-09-15T19:18:41.798Z,-145.31
2022-09-15T19:21:13.195Z,-145.31
2022-09-15T19:23:41.266Z,-145.31
2022-09-15T19:26:13.709Z,-145.31
2022-09-15T19:28:41.987Z,-145.31
2022-09-15T19:31:12.714Z,-145.31
2022-09-15T19:33:41.023Z,-145.31
2022-09-15T19:36:27.608Z,-145.31
2022-09-15T19:38:57.051Z,-145.31
2022-09-15T19:41:25.535Z,-145.31
2022-09-15T19:43:53.907Z,-145.31
2022-09-15T19:46:26.497Z,-145.31
2022-09-15T19:48:55.350Z,-145.31
2022-09-15T19:51:23.852Z,-145.31
2022-09-15T19:53:55.471Z,-145.31
2022-09-15T19:56:26.172Z,-145.31
2022-09-15T19:58:55.886Z,-145.31
2022-09-15T20:01:27.129Z,-145.31
2022-09-15T20:03:56.704Z,-145.31
2022-09-15T20:06:28.942Z,-145.31
2022-09-15T20:08:59.623Z,-145.31
2022-09-15T20:11:28.931Z,-145.31
2022-09-15T20:13:57.524Z,-145.31
2022-09-15T20:16:27.209Z,-145.31
2022-09-15T20:18:55.956Z,-145.31
2022-09-15T20:21:46.240Z,-145.31
2022-09-15T20:24:14.783Z,-145.31
2022-09-15T20:26:43.418Z,-145.31
2022-09-15T20:29:12.056Z,-145.31
2022-09-15T20:31:41.944Z,-145.31
2022-09-15T20:34:10.051Z,-145.31
2022-09-15T20:36:39.625Z,-145.31
2022-09-15T20:39:10.610Z,-145.31
2022-09-15T20:41:39.386Z,-145.31
2022-09-15T20:44:09.440Z,-145.31
2022-09-15T20:46:37.982Z,-145.31
2022-09-15T20:49:08.278Z,-145.31
2022-09-15T20:51:36.349Z,-145.31
2022-09-15T20:54:05.905Z,-145.31
2022-09-15T20:56:36.026Z,-145.31
2022-09-15T20:59:06.045Z,-145.31
2022-09-15T21:01:36.710Z,-145.31
2022-09-15T21:04:05.707Z,-145.31
2022-09-15T21:06:35.903Z,-145.31
2022-09-15T21:09:04.816Z,-145.31
2022-09-15T21:11:33.152Z,-145.31
2022-09-15T21:14:02.145Z,-145.31
2022-09-15T21:16:30.770Z,-145.31
2022-09-15T21:18:59.880Z,-145.31
2022-09-15T21:21:30.072Z,-145.31
2022-09-15T21:24:03.664Z,-145.31
2022-09-15T21:26:33.972Z,-145.31
2022-09-15T21:29:02.732Z,-145.31
2022-09-15T21:31:33.313Z,-145.31
2022-09-15T21:34:01.585Z,-145.31
2022-09-15T21:36:31.294Z,-145.31
2022-09-15T21:39:02.786Z,-145.31
2022-09-15T21:41:31.133Z,-145.31
2022-09-15T21:44:00.948Z,-145.31
2022-09-15T21:46:30.302Z,-145.31
2022-09-15T21:48:59.903Z,-145.31
2022-09-15T21:51:29.933Z,-145.31
2022-09-15T21:53:59.272Z,-145.31
2022-09-15T21:56:29.685Z,-145.31
2022-09-15T21:58:58.376Z,-145.31
2022-09-15T22:01:28.167Z,-145.31
2022-09-15T22:03:57.464Z,-145.31
2022-09-15T22:06:30.198Z,-145.31
2022-09-15T22:08:58.999Z,-145.31
2022-09-15T22:11:28.797Z,-145.31
2022-09-15T22:13:57.148Z,-145.31
2022-09-15T22:16:26.438Z,-145.31
2022-09-15T22:18:55.442Z,-145.31
2022-09-15T22:21:25.832Z,-145.31
2022-09-15T22:23:56.110Z,-145.31
2022-09-15T22:26:26.815Z,-145.31
2022-09-15T22:28:56.765Z,-145.31
2022-09-15T22:31:26.434Z,-145.31
2022-09-15T22:33:54.853Z,-145.31
2022-09-15T22:36:28.593Z,-145.31
2022-09-15T22:39:03.458Z,-145.31
2022-09-15T22:41:31.893Z,-145.31
2022-09-15T22:44:01.453Z,-145.31
2022-09-15T22:46:29.504Z,-145.31
2022-09-15T22:48:58.105Z,-145.31
2022-09-15T22:51:26.285Z,-145.31
2022-09-15T22:53:57.235Z,-145.31
2022-09-15T22:56:26.520Z,-145.31
2022-09-15T22:58:55.863Z,-145.31
2022-09-15T23:01:27.280Z,-145.31
2022-09-15T23:03:57.627Z,-145.31
2022-09-15T23:06:27.153Z,-145.31
2022-09-15T23:08:56.518Z,-145.31
2022-09-15T23:11:24.805Z,-145.31
2022-09-15T23:13:53.732Z,-145.31
2022-09-15T23:16:23.207Z,-145.31
2022-09-15T23:18:53.504Z,-145.31
2022-09-15T23:21:21.880Z,-145.31
2022-09-15T23:23:50.178Z,-145.31
2022-09-15T23:26:20.259Z,-145.31
2022-09-15T23:28:49.275Z,-145.31
2022-09-15T23:31:18.106Z,-145.31
2022-09-15T23:33:46.261Z,-145.31
2022-09-15T23:36:19.333Z,-145.31
2022-09-15T23:38:48.755Z,-145.31
2022-09-15T23:41:18.095Z,-145.31
2022-09-15T23:43:47.134Z,-145.31
2022-09-15T23:46:15.492Z,-145.31
2022-09-15T23:48:44.134Z,-145.31
2022-09-15T23:51:12.153Z,-145.31
2022-09-15T23:53:41.552Z,-145.31
2022-09-15T23:56:09.613Z,-145.31
2022-09-15T23:58:37.610Z,-145.31
